createdAt,value
2018-06-04T00:02:17.216Z,45.60
2018-06-04T00:04:45.405Z,46.83
2018-06-04T00:07:13.579Z,48.63
2018-06-04T00:09:41.752Z,47.23
2018-06-04T00:12:10.048Z,44.40
2018-06-04T00:14:38.324Z,46.20
2018-06-04T00:17:06.512Z,46.60
2018-06-04T00:19:34.716Z,47.30
2018-06-04T00:22:02.977Z,47.23
2018-06-04T00:24:31.148Z,49.10
2018-06-04T00:26:59.338Z,50.83
2018-06-04T00:29:27.525Z,48.43
2018-06-04T00:31:55.702Z,47.03
2018-06-04T00:34:23.863Z,50.03
2018-06-04T00:36:52.057Z,51.00
2018-06-04T00:39:20.221Z,53.07
2018-06-04T00:41:48.392Z,52.77
2018-06-04T00:44:16.581Z,52.53
2018-06-04T00:46:44.748Z,51.63
2018-06-04T00:49:12.692Z,47.17
2018-06-04T00:51:40.868Z,51.90
2018-06-04T00:54:09.088Z,50.67
2018-06-04T00:56:37.435Z,51.40
2018-06-04T00:59:05.624Z,46.37
2018-06-04T01:01:33.805Z,46.23
2018-06-04T01:04:02.035Z,47.80
2018-06-04T01:06:30.198Z,42.37
2018-06-04T01:08:58.380Z,40.17
2018-06-04T01:11:26.569Z,44.77
2018-06-04T01:13:54.760Z,41.27
2018-06-04T01:16:22.919Z,39.70
2018-06-04T01:18:51.120Z,40.40
2018-06-04T01:21:19.296Z,38.60
2018-06-04T01:23:47.501Z,38.80
2018-06-04T01:26:16.017Z,36.67
2018-06-04T01:28:44.176Z,37.40
2018-06-04T01:31:12.367Z,41.90
2018-06-04T01:33:41.240Z,37.90
2018-06-04T01:36:09.403Z,39.77
2018-06-04T01:38:37.685Z,39.70
2018-06-04T01:41:05.932Z,40.57
2018-06-04T01:43:34.166Z,37.87
2018-06-04T01:46:02.348Z,41.93
2018-06-04T01:48:30.556Z,38.53
2018-06-04T01:50:58.504Z,41.63
2018-06-04T01:53:26.697Z,43.47
2018-06-04T01:55:54.887Z,37.87
2018-06-04T01:58:23.100Z,40.50
2018-06-04T02:00:51.357Z,43.93
2018-06-04T02:03:19.568Z,42.90
2018-06-04T02:05:47.744Z,39.30
2018-06-04T02:08:15.927Z,42.57
2018-06-04T02:10:44.423Z,36.87
2018-06-04T02:13:12.615Z,34.23
2018-06-04T02:15:40.791Z,43.73
2018-06-04T02:18:09.041Z,41.90
2018-06-04T02:20:37.373Z,42.50
2018-06-04T02:23:05.563Z,38.73
2018-06-04T02:25:33.742Z,37.93
2018-06-04T02:28:01.912Z,40.67
2018-06-04T02:30:30.103Z,40.20
2018-06-04T02:32:58.336Z,38.70
2018-06-04T02:35:26.515Z,37.17
2018-06-04T02:37:54.712Z,37.80
2018-06-04T02:40:22.924Z,39.73
2018-06-04T02:42:51.096Z,34.73
2018-06-04T02:45:19.288Z,34.40
2018-06-04T02:47:47.461Z,34.17
2018-06-04T02:50:15.710Z,35.20
2018-06-04T02:52:43.833Z,35.50
2018-06-04T02:55:12.009Z,37.10
2018-06-04T02:57:40.172Z,37.20
2018-06-04T03:00:08.359Z,35.00
2018-06-04T03:02:36.532Z,36.40
2018-06-04T03:05:04.760Z,40.40
2018-06-04T03:07:32.946Z,37.13
2018-06-04T03:10:01.131Z,36.87
2018-06-04T03:12:29.301Z,37.13
2018-06-04T03:14:57.524Z,39.53
2018-06-04T03:17:25.705Z,36.63
2018-06-04T03:19:53.945Z,35.43
2018-06-04T03:22:22.087Z,36.70
2018-06-04T03:24:50.255Z,39.33
2018-06-04T03:27:18.428Z,39.47
2018-06-04T03:29:46.604Z,36.53
2018-06-04T03:32:14.780Z,34.17
2018-06-04T03:34:42.969Z,39.53
2018-06-04T03:37:11.165Z,43.50
2018-06-04T03:39:39.111Z,36.27
2018-06-04T03:42:07.309Z,34.80
2018-06-04T03:44:35.632Z,34.80
2018-06-04T03:47:03.794Z,35.63
2018-06-04T03:49:31.974Z,32.90
2018-06-04T03:52:00.196Z,39.53
2018-06-04T03:54:28.331Z,36.70
2018-06-04T03:56:56.541Z,32.80
2018-06-04T03:59:24.723Z,31.33
2018-06-04T04:01:52.948Z,30.80
2018-06-04T04:04:21.128Z,37.00
2018-06-04T04:06:49.295Z,33.90
2018-06-04T04:09:17.461Z,35.20
2018-06-04T04:11:45.636Z,30.83
2018-06-04T04:14:13.824Z,32.53
2018-06-04T04:16:42.009Z,30.00
2018-06-04T04:19:10.175Z,33.20
2018-06-04T04:21:38.368Z,30.67
2018-06-04T04:24:06.553Z,29.30
2018-06-04T04:26:34.789Z,31.27
2018-06-04T04:29:02.987Z,33.23
2018-06-04T04:31:31.160Z,33.80
2018-06-04T04:33:59.376Z,34.20
2018-06-04T04:36:27.564Z,34.43
2018-06-04T04:38:55.757Z,33.20
2018-06-04T04:41:23.955Z,34.30
2018-06-04T04:43:52.139Z,31.07
2018-06-04T04:46:20.332Z,32.00
2018-06-04T04:48:48.496Z,35.10
2018-06-04T04:51:16.700Z,33.87
2018-06-04T04:53:44.906Z,32.40
2018-06-04T04:56:13.081Z,31.50
2018-06-04T04:58:41.287Z,34.07
2018-06-04T05:01:09.456Z,35.43
2018-06-04T05:03:37.636Z,31.73
2018-06-04T05:06:05.862Z,31.90
2018-06-04T05:08:34.071Z,35.57
2018-06-04T05:11:02.244Z,37.07
2018-06-04T05:13:30.444Z,35.63
2018-06-04T05:15:58.649Z,37.50
2018-06-04T05:18:26.844Z,33.97
2018-06-04T05:20:55.042Z,33.40
2018-06-04T05:23:23.228Z,34.20
2018-06-04T05:25:51.924Z,32.70
2018-06-04T05:28:20.100Z,34.67
2018-06-04T05:30:48.267Z,34.90
2018-06-04T05:33:16.483Z,32.30
2018-06-04T05:35:44.653Z,33.20
2018-06-04T05:38:12.918Z,32.60
2018-06-04T05:40:41.153Z,31.80
2018-06-04T05:43:09.376Z,30.00
2018-06-04T05:45:37.577Z,29.03
2018-06-04T05:48:05.770Z,29.80
2018-06-04T05:50:33.972Z,29.07
2018-06-04T05:53:02.155Z,29.33
2018-06-04T05:55:30.336Z,28.17
2018-06-04T05:57:58.525Z,27.80
2018-06-04T06:00:26.714Z,27.57
2018-06-04T06:02:54.918Z,28.53
2018-06-04T06:05:23.116Z,27.93
2018-06-04T06:07:51.047Z,29.40
2018-06-04T06:10:19.254Z,25.20
2018-06-04T06:12:47.449Z,26.80
2018-06-04T06:15:15.635Z,26.27
2018-06-04T06:17:43.808Z,25.57
2018-06-04T06:20:12.029Z,26.87
2018-06-04T06:22:40.296Z,25.50
2018-06-04T06:25:08.530Z,24.80
2018-06-04T06:27:36.712Z,23.67
2018-06-04T06:30:05.096Z,24.87
2018-06-04T06:32:33.264Z,25.53
2018-06-04T06:35:07.861Z,23.97
2018-06-04T06:37:36.055Z,23.13
2018-06-04T06:40:04.348Z,26.17
2018-06-04T06:42:32.551Z,25.90
2018-06-04T06:45:00.736Z,26.23
2018-06-04T06:47:28.900Z,26.67
2018-06-04T06:49:57.097Z,24.97
2018-06-04T06:52:25.048Z,24.77
2018-06-04T06:54:53.237Z,24.80
2018-06-04T06:57:21.172Z,22.83
2018-06-04T06:59:49.348Z,23.77
2018-06-04T07:02:17.521Z,24.73
2018-06-04T07:04:45.745Z,23.47
2018-06-04T07:07:13.916Z,21.60
2018-06-04T07:09:42.104Z,21.27
2018-06-04T07:12:10.288Z,22.43
2018-06-04T07:14:38.472Z,25.17
2018-06-04T07:17:06.671Z,21.17
2018-06-04T07:19:34.865Z,20.73
2018-06-04T07:22:03.040Z,20.47
2018-06-04T07:26:00.476Z,22.67
2018-06-04T07:31:03.282Z,23.13
2018-06-04T07:33:31.465Z,21.87
2018-06-04T07:36:09.694Z,21.53
2018-06-04T07:38:37.953Z,22.60
2018-06-04T07:41:06.442Z,22.63
2018-06-04T07:43:34.603Z,22.73
2018-06-04T07:46:02.777Z,19.57
2018-06-04T07:48:30.952Z,21.57
2018-06-04T07:50:59.124Z,19.97
2018-06-04T07:53:27.304Z,21.10
2018-06-04T07:55:55.253Z,23.67
2018-06-04T07:58:23.445Z,22.97
2018-06-04T08:00:51.701Z,22.27
2018-06-04T08:03:19.846Z,25.70
2018-06-04T08:05:48.020Z,22.67
2018-06-04T08:10:50.816Z,23.93
2018-06-04T08:13:19.015Z,23.20
2018-06-04T08:15:47.210Z,24.00
2018-06-04T08:18:15.392Z,24.07
2018-06-04T08:20:43.331Z,21.53
2018-06-04T08:23:11.528Z,22.03
2018-06-04T08:25:39.451Z,23.13
2018-06-04T08:28:07.636Z,20.83
2018-06-04T08:30:35.816Z,22.33
2018-06-04T08:33:04.000Z,20.63
2018-06-04T08:35:32.157Z,22.27
2018-06-04T08:38:00.368Z,22.37
2018-06-04T08:40:28.306Z,21.80
2018-06-04T08:42:56.489Z,20.73
2018-06-04T08:45:24.664Z,23.77
2018-06-04T08:47:52.840Z,23.53
2018-06-04T08:50:21.025Z,25.33
2018-06-04T08:52:48.969Z,22.37
2018-06-04T08:55:17.153Z,21.47
2018-06-04T08:57:45.796Z,22.30
2018-06-04T09:00:14.005Z,22.63
2018-06-04T09:02:42.196Z,19.50
2018-06-04T09:05:10.137Z,21.80
2018-06-04T09:07:38.364Z,24.30
2018-06-04T09:10:06.564Z,20.80
2018-06-04T09:12:34.760Z,21.70
2018-06-04T09:15:02.960Z,21.17
2018-06-04T09:17:30.908Z,19.40
2018-06-04T09:19:59.108Z,19.03
2018-06-04T09:22:27.048Z,19.70
2018-06-04T09:24:55.233Z,19.03
2018-06-04T09:27:23.403Z,20.77
2018-06-04T09:29:51.605Z,21.67
2018-06-04T09:32:19.552Z,22.40
2018-06-04T09:34:47.735Z,21.03
2018-06-04T09:37:15.659Z,20.97
2018-06-04T09:39:43.881Z,21.40
2018-06-04T09:42:11.819Z,20.83
2018-06-04T09:44:40.125Z,23.00
2018-06-04T09:47:08.057Z,22.33
2018-06-04T09:49:36.242Z,22.90
2018-06-04T09:52:04.428Z,19.87
2018-06-04T09:54:32.616Z,21.33
2018-06-04T09:57:00.556Z,19.27
2018-06-04T09:59:28.740Z,20.50
2018-06-04T10:01:56.937Z,20.40
2018-06-04T10:04:25.141Z,20.80
2018-06-04T10:06:53.329Z,20.30
2018-06-04T10:09:22.043Z,21.47
2018-06-04T10:11:50.217Z,20.10
2018-06-04T10:14:18.424Z,21.60
2018-06-04T10:16:46.623Z,21.07
2018-06-04T10:19:14.808Z,22.10
2018-06-04T10:21:43.012Z,23.33
2018-06-04T10:24:11.193Z,19.40
2018-06-04T10:26:39.412Z,21.47
2018-06-04T10:29:07.649Z,21.27
2018-06-04T10:31:35.604Z,20.60
2018-06-04T10:34:03.781Z,22.33
2018-06-04T10:36:32.011Z,21.43
2018-06-04T10:39:00.188Z,21.53
2018-06-04T10:41:28.377Z,21.63
2018-06-04T10:43:56.561Z,20.47
2018-06-04T10:46:24.745Z,23.63
2018-06-04T10:48:52.917Z,21.20
2018-06-04T10:51:21.120Z,20.43
2018-06-04T10:53:49.300Z,21.33
2018-06-04T10:56:17.928Z,23.30
2018-06-04T10:58:46.108Z,21.10
2018-06-04T11:01:14.308Z,23.50
2018-06-04T11:03:42.492Z,21.80
2018-06-04T11:06:10.683Z,20.27
2018-06-04T11:08:38.888Z,23.03
2018-06-04T11:11:07.304Z,23.40
2018-06-04T11:13:35.480Z,21.67
2018-06-04T11:16:03.669Z,21.63
2018-06-04T11:18:31.850Z,23.23
2018-06-04T11:20:59.779Z,21.60
2018-06-04T11:23:28.028Z,20.50
2018-06-04T11:25:56.243Z,24.10
2018-06-04T11:28:24.424Z,22.00
2018-06-04T11:30:52.623Z,20.23
2018-06-04T11:33:20.825Z,20.60
2018-06-04T11:35:48.989Z,22.47
2018-06-04T11:38:17.197Z,21.93
2018-06-04T11:40:45.448Z,22.33
2018-06-04T11:43:13.632Z,20.00
2018-06-04T11:45:41.832Z,18.23
2018-06-04T11:48:10.016Z,21.00
2018-06-04T11:50:38.213Z,18.60
2018-06-04T11:53:06.401Z,19.27
2018-06-04T11:55:34.609Z,19.67
2018-06-04T11:58:02.873Z,19.60
2018-06-04T12:00:31.073Z,16.33
2018-06-04T12:02:59.272Z,16.43
2018-06-04T12:05:27.607Z,17.03
2018-06-04T12:07:55.796Z,16.53
2018-06-04T12:10:23.988Z,19.80
2018-06-04T12:12:51.939Z,19.63
2018-06-04T12:15:20.131Z,18.87
2018-06-04T12:17:48.067Z,16.50
2018-06-04T12:20:16.282Z,18.27
2018-06-04T12:22:44.261Z,17.30
2018-06-04T12:25:12.460Z,17.90
2018-06-04T12:27:40.703Z,15.97
2018-06-04T12:30:08.904Z,16.00
2018-06-04T12:32:37.128Z,19.90
2018-06-04T12:35:05.300Z,17.50
2018-06-04T12:37:33.488Z,18.13
2018-06-04T12:40:01.427Z,16.27
2018-06-04T12:42:29.612Z,16.07
2018-06-04T12:44:57.811Z,17.27
2018-06-04T12:47:25.760Z,18.47
2018-06-04T12:49:53.953Z,16.30
2018-06-04T12:52:21.903Z,19.70
2018-06-04T12:54:50.157Z,21.20
2018-06-04T12:57:18.340Z,19.63
2018-06-04T12:59:46.528Z,21.80
2018-06-04T13:02:14.708Z,18.70
2018-06-04T13:04:42.805Z,16.93
2018-06-04T13:07:10.949Z,17.60
2018-06-04T13:09:39.168Z,15.90
2018-06-04T13:12:07.360Z,18.40
2018-06-04T13:14:35.536Z,19.03
2018-06-04T13:17:03.755Z,15.80
2018-06-04T13:19:31.707Z,18.20
2018-06-04T13:22:00.040Z,17.80
2018-06-04T13:24:28.228Z,15.90
2018-06-04T13:26:56.391Z,16.43
2018-06-04T13:29:24.575Z,16.17
2018-06-04T13:31:52.755Z,17.23
2018-06-04T13:34:20.960Z,14.80
2018-06-04T13:36:49.196Z,15.33
2018-06-04T13:39:17.423Z,14.03
2018-06-04T13:41:45.367Z,12.93
2018-06-04T13:44:13.677Z,13.00
2018-06-04T13:46:41.983Z,11.03
2018-06-04T13:49:10.173Z,12.57
2018-06-04T13:51:38.370Z,12.60
2018-06-04T13:54:06.586Z,12.43
2018-06-04T13:56:34.774Z,14.03
2018-06-04T13:59:02.967Z,15.50
2018-06-04T14:01:31.140Z,13.53
2018-06-04T14:03:59.344Z,13.10
2018-06-04T14:06:27.511Z,13.77
2018-06-04T14:08:55.712Z,13.77
2018-06-04T14:11:23.920Z,12.97
2018-06-04T14:13:52.095Z,12.43
2018-06-04T14:16:20.295Z,13.60
2018-06-04T14:18:48.481Z,13.40
2018-06-04T14:21:16.670Z,12.90
2018-06-04T14:23:44.676Z,14.53
2018-06-04T14:26:12.867Z,13.70
2018-06-04T14:28:41.068Z,12.57
2018-06-04T14:31:09.324Z,14.53
2018-06-04T14:33:37.546Z,13.40
2018-06-04T14:36:05.776Z,13.83
2018-06-04T14:38:33.972Z,11.27
2018-06-04T14:41:02.193Z,11.10
2018-06-04T14:43:30.379Z,13.27
2018-06-04T14:45:58.569Z,11.90
2018-06-04T14:48:26.755Z,13.53
2018-06-04T14:50:54.936Z,12.93
2018-06-04T14:53:23.121Z,13.00
2018-06-04T14:55:51.303Z,11.20
2018-06-04T14:58:19.346Z,12.10
2018-06-04T15:00:47.536Z,13.17
2018-06-04T15:03:15.736Z,13.40
2018-06-04T15:05:43.916Z,11.97
2018-06-04T15:08:12.099Z,12.50
2018-06-04T15:10:40.308Z,11.47
2018-06-04T15:13:08.488Z,12.30
2018-06-04T15:15:36.692Z,10.97
2018-06-04T15:18:04.632Z,11.80
2018-06-04T15:20:32.836Z,11.07
2018-06-04T15:23:00.783Z,12.40
2018-06-04T15:25:28.956Z,13.17
2018-06-04T15:27:57.148Z,12.97
2018-06-04T15:30:25.084Z,12.53
2018-06-04T15:32:53.348Z,12.57
2018-06-04T15:35:21.540Z,10.80
2018-06-04T15:37:49.777Z,12.80
2018-06-04T15:40:18.954Z,12.20
2018-06-04T15:42:47.209Z,10.87
2018-06-04T15:45:15.177Z,11.67
2018-06-04T15:47:43.124Z,11.40
2018-06-04T15:50:11.308Z,10.83
2018-06-04T15:52:39.522Z,11.07
2018-06-04T15:55:07.701Z,12.10
2018-06-04T15:57:35.894Z,11.17
2018-06-04T16:00:04.100Z,13.00
2018-06-04T16:02:32.280Z,12.03
2018-06-04T16:05:00.472Z,11.33
2018-06-04T16:07:28.668Z,12.57
2018-06-04T16:09:56.947Z,12.80
2018-06-04T16:12:25.166Z,12.20
2018-06-04T16:14:53.409Z,12.40
2018-06-04T16:17:21.544Z,12.40
2018-06-04T16:19:49.711Z,12.83
2018-06-04T16:22:17.961Z,13.20
2018-06-04T16:24:46.427Z,12.80
2018-06-04T16:27:14.612Z,12.70
2018-06-04T16:29:42.791Z,12.20
2018-06-04T16:32:10.988Z,13.83
2018-06-04T16:34:39.176Z,11.77
2018-06-04T16:37:07.343Z,11.23
2018-06-04T16:39:35.556Z,11.13
2018-06-04T16:42:03.745Z,11.70
2018-06-04T16:44:31.996Z,11.47
2018-06-04T16:47:00.188Z,11.90
2018-06-04T16:49:28.359Z,11.53
2018-06-04T16:51:56.584Z,11.00
2018-06-04T16:54:26.044Z,14.47
2018-06-04T16:56:54.240Z,12.43
2018-06-04T16:59:22.475Z,10.93
2018-06-04T17:01:50.648Z,10.63
2018-06-04T17:04:18.819Z,9.50
2018-06-04T17:06:47.142Z,11.23
2018-06-04T17:09:15.107Z,10.60
2018-06-04T17:11:43.359Z,10.87
2018-06-04T17:14:11.563Z,10.80
2018-06-04T17:16:39.804Z,10.50
2018-06-04T17:19:08.168Z,11.70
2018-06-04T17:21:36.444Z,10.40
2018-06-04T17:24:05.749Z,10.57
2018-06-04T17:26:34.117Z,10.00
2018-06-04T17:29:02.404Z,9.27
2018-06-04T17:31:31.316Z,9.43
2018-06-04T17:33:59.535Z,8.17
2018-06-04T17:36:27.734Z,6.93
2018-06-04T17:38:56.212Z,7.47
2018-06-04T17:41:24.460Z,8.50
2018-06-04T17:43:52.788Z,7.57
2018-06-04T17:46:21.061Z,7.40
2018-06-04T17:48:49.308Z,7.23
2018-06-04T17:51:17.467Z,6.40
2018-06-04T17:53:46.828Z,7.40
2018-06-04T17:56:14.981Z,5.83
2018-06-04T17:58:49.830Z,6.20
2018-06-04T18:01:18.069Z,5.90
2018-06-04T18:03:46.332Z,7.47
2018-06-04T18:06:14.575Z,7.50
2018-06-04T18:08:42.746Z,8.57
2018-06-04T18:11:10.935Z,8.27
2018-06-04T18:13:39.241Z,8.10
2018-06-04T18:16:07.411Z,6.57
2018-06-04T18:18:35.604Z,7.77
2018-06-04T18:21:04.520Z,8.40
2018-06-04T18:23:32.732Z,7.20
2018-06-04T18:26:00.973Z,6.37
2018-06-04T18:28:29.217Z,6.87
2018-06-04T18:30:58.028Z,6.80
2018-06-04T18:33:26.619Z,6.73
2018-06-04T18:35:54.942Z,6.50
2018-06-04T18:38:23.144Z,6.83
2018-06-04T18:40:52.164Z,6.07
2018-06-04T18:43:20.414Z,6.53
2018-06-04T18:45:48.633Z,7.13
2018-06-04T18:48:16.695Z,6.97
2018-06-04T18:50:45.803Z,6.97
2018-06-04T18:53:14.139Z,5.63
2018-06-04T18:55:42.370Z,6.43
2018-06-04T18:58:10.642Z,6.50
2018-06-04T19:00:38.815Z,6.80
2018-06-04T19:03:07.097Z,7.77
2018-06-04T19:05:35.301Z,7.60
2018-06-04T19:08:03.528Z,6.70
2018-06-04T19:10:32.680Z,6.90
2018-06-04T19:13:00.988Z,7.90
2018-06-04T19:15:29.079Z,6.70
2018-06-04T19:17:57.245Z,7.43
2018-06-04T19:20:25.467Z,7.17
2018-06-04T19:22:53.724Z,8.37
2018-06-04T19:25:21.921Z,6.83
2018-06-04T19:27:50.116Z,7.23
2018-06-04T19:30:18.324Z,8.53
2018-06-04T19:32:46.811Z,7.50
2018-06-04T19:35:15.085Z,7.60
2018-06-04T19:37:43.265Z,6.80
2018-06-04T19:40:11.485Z,8.07
2018-06-04T19:42:39.720Z,8.57
2018-06-04T19:45:07.908Z,8.73
2018-06-04T19:47:42.592Z,7.27
2018-06-04T19:50:10.786Z,8.40
2018-06-04T19:52:38.958Z,8.40
2018-06-04T19:55:07.133Z,8.60
2018-06-04T19:57:35.340Z,9.50
2018-06-04T20:00:03.531Z,9.60
2018-06-04T20:02:31.776Z,8.80
2018-06-04T20:04:59.969Z,9.70
2018-06-04T20:07:28.168Z,9.40
2018-06-04T20:09:56.388Z,9.60
2018-06-04T20:12:24.567Z,10.53
2018-06-04T20:14:52.804Z,11.43
2018-06-04T20:17:20.988Z,10.47
2018-06-04T20:19:49.179Z,10.90
2018-06-04T20:22:17.348Z,11.73
2018-06-04T20:24:45.647Z,11.30
2018-06-04T20:27:13.866Z,11.77
2018-06-04T20:29:42.144Z,11.93
2018-06-04T20:32:10.339Z,13.57
2018-06-04T20:34:38.557Z,13.30
2018-06-04T20:37:06.744Z,12.90
2018-06-04T20:39:34.916Z,14.43
2018-06-04T20:42:03.113Z,15.20
2018-06-04T20:44:31.291Z,14.50
2018-06-04T20:46:59.459Z,15.67
2018-06-04T20:49:27.644Z,14.50
2018-06-04T20:51:55.882Z,16.67
2018-06-04T20:54:24.084Z,16.57
2018-06-04T20:56:52.264Z,16.97
2018-06-04T20:59:20.211Z,15.93
2018-06-04T21:01:48.468Z,15.33
2018-06-04T21:04:16.667Z,17.17
2018-06-04T21:06:44.987Z,16.80
2018-06-04T21:09:13.171Z,18.80
2018-06-04T21:11:41.377Z,15.17
2018-06-04T21:14:09.569Z,17.47
2018-06-04T21:16:37.744Z,18.47
2018-06-04T21:19:05.928Z,18.60
2018-06-04T21:21:34.139Z,18.70
2018-06-04T21:24:02.348Z,19.97
2018-06-04T21:26:30.528Z,19.57
2018-06-04T21:28:59.160Z,19.20
2018-06-04T21:31:27.347Z,18.67
2018-06-04T21:33:55.531Z,20.93
2018-06-04T21:36:23.732Z,19.40
2018-06-04T21:38:51.933Z,20.70
2018-06-04T21:41:20.113Z,20.00
2018-06-04T21:43:48.314Z,21.83
2018-06-04T21:46:16.486Z,22.27
2018-06-04T21:48:48.051Z,22.47
2018-06-04T21:51:16.391Z,26.27
2018-06-04T21:53:44.617Z,25.63
2018-06-04T21:56:12.824Z,24.00
2018-06-04T21:58:41.004Z,27.87
2018-06-04T22:01:08.963Z,28.60
2018-06-04T22:03:37.151Z,28.27
2018-06-04T22:06:05.338Z,28.57
2018-06-04T22:08:33.586Z,27.60
2018-06-04T22:11:01.776Z,27.60
2018-06-04T22:13:29.962Z,27.33
2018-06-04T22:15:58.191Z,26.30
2018-06-04T22:18:26.416Z,27.40
2018-06-04T22:20:54.595Z,25.50
2018-06-04T22:23:22.792Z,27.70
2018-06-04T22:25:50.970Z,24.23
2018-06-04T22:28:19.156Z,23.13
2018-06-04T22:30:48.004Z,22.20
2018-06-04T22:33:16.178Z,22.80
2018-06-04T22:35:44.372Z,22.00
2018-06-04T22:38:12.563Z,19.80
2018-06-04T22:40:40.748Z,22.37
2018-06-04T22:43:08.920Z,21.70
2018-06-04T22:45:37.100Z,20.90
2018-06-04T22:48:05.340Z,19.97
2018-06-04T22:50:33.525Z,19.70
2018-06-04T22:53:01.697Z,19.40
2018-06-04T22:55:29.876Z,17.40
2018-06-04T22:57:58.059Z,21.20
2018-06-04T23:00:32.688Z,21.20
2018-06-04T23:03:00.955Z,19.53
2018-06-04T23:05:29.152Z,19.17
2018-06-04T23:07:57.346Z,18.40
2018-06-04T23:10:25.536Z,19.80
2018-06-04T23:12:53.743Z,18.07
2018-06-04T23:15:21.924Z,19.30
2018-06-04T23:17:50.303Z,18.97
2018-06-04T23:20:18.483Z,18.13
2018-06-04T23:22:47.880Z,19.10
2018-06-04T23:25:16.076Z,19.17
2018-06-04T23:27:44.278Z,18.47
2018-06-04T23:30:12.452Z,20.20
2018-06-04T23:32:40.644Z,18.57
2018-06-04T23:35:08.831Z,19.53
2018-06-04T23:37:37.007Z,19.60
2018-06-04T23:40:05.186Z,19.37
2018-06-04T23:42:33.363Z,18.83
2018-06-04T23:45:01.578Z,17.13
2018-06-04T23:47:29.805Z,19.17
2018-06-04T23:49:57.976Z,17.87
2018-06-04T23:52:26.172Z,18.17
2018-06-04T23:54:54.363Z,17.70
2018-06-04T23:57:22.548Z,16.60
2018-06-04T23:59:50.744Z,16.37
